sensor_id;sensor_type;location;lat;lon;timestamp;pressure;altitude;pressure_sealevel;temperature;humidity
20003;BME280;10162;41.600;23.806;2023-05-22T10:43:05;94818.81;;;21.99;50.73
20003;BME280;10162;41.600;23.806;2023-05-22T10:45:30;94825.16;;;22.08;50.08
20003;BME280;10162;41.600;23.806;2023-05-22T10:48:05;94801.44;;;22.11;50.35
20003;BME280;10162;41.600;23.806;2023-05-22T10:50:32;94811.03;;;22.56;49.71
20003;BME280;10162;41.600;23.806;2023-05-22T10:53:18;94797.94;;;22.16;50.77
20003;BME280;10162;41.600;23.806;2023-05-22T10:55:48;94787.00;;;21.53;51.20
20003;BME280;10162;41.600;23.806;2023-05-22T10:58:15;94813.69;;;21.23;51.84
20003;BME280;10162;41.600;23.806;2023-05-22T11:00:43;94798.53;;;20.98;52.34
20003;BME280;10162;41.600;23.806;2023-05-22T11:03:08;94782.84;;;21.12;52.99
20003;BME280;10162;41.600;23.806;2023-05-22T11:05:35;94780.75;;;20.83;52.63
20003;BME280;10162;41.600;23.806;2023-05-22T11:10:55;94792.53;;;19.95;53.99
20003;BME280;10162;41.600;23.806;2023-05-22T11:13:25;94785.50;;;20.36;54.57
20003;BME280;10162;41.600;23.806;2023-05-22T11:15:53;94800.38;;;20.37;53.71
20003;BME280;10162;41.600;23.806;2023-05-22T11:18:23;94792.31;;;20.16;53.49
20003;BME280;10162;41.600;23.806;2023-05-22T11:20:52;94786.50;;;20.09;54.26
20003;BME280;10162;41.600;23.806;2023-05-22T11:23:19;94807.00;;;20.34;54.34
20003;BME280;10162;41.600;23.806;2023-05-22T11:25:47;94798.50;;;20.32;54.65
20003;BME280;10162;41.600;23.806;2023-05-22T11:28:13;94790.31;;;20.59;54.80
20003;BME280;10162;41.600;23.806;2023-05-22T11:30:41;94806.53;;;20.78;54.82
20003;BME280;10162;41.600;23.806;2023-05-22T11:33:08;94806.25;;;20.94;55.31
20003;BME280;10162;41.600;23.806;2023-05-22T11:35:34;94793.50;;;20.71;54.65
20003;BME280;10162;41.600;23.806;2023-05-22T11:38:05;94791.91;;;20.65;55.26
20003;BME280;10162;41.600;23.806;2023-05-22T11:40:33;94807.03;;;20.54;55.17
20003;BME280;10162;41.600;23.806;2023-05-22T11:42:59;94811.28;;;20.81;54.85
20003;BME280;10162;41.600;23.806;2023-05-22T11:45:25;94807.84;;;20.70;55.42
20003;BME280;10162;41.600;23.806;2023-05-22T11:47:51;94817.66;;;20.80;56.15
20003;BME280;10162;41.600;23.806;2023-05-22T11:50:17;94805.44;;;21.09;55.93
20003;BME280;10162;41.600;23.806;2023-05-22T11:52:42;94794.03;;;20.98;55.28
20003;BME280;10162;41.600;23.806;2023-05-22T11:55:09;94804.63;;;21.09;50.78
20003;BME280;10162;41.600;23.806;2023-05-22T11:57:37;94786.03;;;21.34;50.55
20003;BME280;10162;41.600;23.806;2023-05-22T12:00:04;94796.09;;;21.52;49.62
20003;BME280;10162;41.600;23.806;2023-05-22T12:02:37;94785.75;;;21.25;49.55
20003;BME280;10162;41.600;23.806;2023-05-22T12:05:04;94806.72;;;21.57;49.92
20003;BME280;10162;41.600;23.806;2023-05-22T12:07:31;94808.88;;;21.40;48.74
20003;BME280;10162;41.600;23.806;2023-05-22T12:09:57;94775.44;;;21.19;50.28
20003;BME280;10162;41.600;23.806;2023-05-22T12:12:26;94790.00;;;21.41;50.50
20003;BME280;10162;41.600;23.806;2023-05-22T12:14:52;94794.78;;;21.09;53.99
20003;BME280;10162;41.600;23.806;2023-05-22T12:17:17;94787.91;;;20.98;55.08
20003;BME280;10162;41.600;23.806;2023-05-22T12:19:44;94788.47;;;20.90;55.74
20003;BME280;10162;41.600;23.806;2023-05-22T12:22:13;94760.81;;;20.71;55.78
20003;BME280;10162;41.600;23.806;2023-05-22T12:24:44;94791.78;;;21.61;53.78
20003;BME280;10162;41.600;23.806;2023-05-22T12:27:14;94749.25;;;21.56;52.33
20003;BME280;10162;41.600;23.806;2023-05-22T12:29:41;94773.44;;;21.60;52.24
20003;BME280;10162;41.600;23.806;2023-05-22T12:34:58;94767.19;;;22.39;50.88
20003;BME280;10162;41.600;23.806;2023-05-22T12:37:25;94770.91;;;21.89;51.51
20003;BME280;10162;41.600;23.806;2023-05-22T12:39:56;94766.19;;;22.30;51.63
20003;BME280;10162;41.600;23.806;2023-05-22T12:42:49;94787.88;;;22.13;50.12
20003;BME280;10162;41.600;23.806;2023-05-22T12:45:16;94769.84;;;21.95;49.02
20003;BME280;10162;41.600;23.806;2023-05-22T12:47:42;94755.81;;;22.72;48.26
20003;BME280;10162;41.600;23.806;2023-05-22T12:50:11;94778.22;;;23.29;47.40
20003;BME280;10162;41.600;23.806;2023-05-22T12:52:37;94764.72;;;23.68;44.46
20003;BME280;10162;41.600;23.806;2023-05-22T12:55:05;94774.81;;;23.71;44.98
20003;BME280;10162;41.600;23.806;2023-05-22T12:57:31;94763.38;;;22.55;46.39
20003;BME280;10162;41.600;23.806;2023-05-22T12:59:56;94761.97;;;22.62;45.46
20003;BME280;10162;41.600;23.806;2023-05-22T13:05:30;94760.13;;;23.50;44.12
20003;BME280;10162;41.600;23.806;2023-05-22T13:07:56;94757.44;;;22.97;46.02
20003;BME280;10162;41.600;23.806;2023-05-22T13:10:26;94742.19;;;22.35;46.71
20003;BME280;10162;41.600;23.806;2023-05-22T13:12:52;94751.13;;;22.88;45.09
20003;BME280;10162;41.600;23.806;2023-05-22T13:15:17;94760.41;;;23.19;45.05
20003;BME280;10162;41.600;23.806;2023-05-22T13:17:43;94751.97;;;23.36;43.60
20003;BME280;10162;41.600;23.806;2023-05-22T13:20:09;94757.69;;;22.95;45.33
20003;BME280;10162;41.600;23.806;2023-05-22T13:22:35;94749.53;;;22.14;47.34
20003;BME280;10162;41.600;23.806;2023-05-22T13:25:01;94726.47;;;21.89;46.32
20003;BME280;10162;41.600;23.806;2023-05-22T13:27:27;94747.13;;;22.12;48.10
20003;BME280;10162;41.600;23.806;2023-05-22T13:29:53;94745.25;;;22.13;47.94
20003;BME280;10162;41.600;23.806;2023-05-22T13:32:22;94737.56;;;22.06;47.62
20003;BME280;10162;41.600;23.806;2023-05-22T13:34:48;94748.50;;;22.05;47.75
20003;BME280;10162;41.600;23.806;2023-05-22T13:37:14;94743.72;;;22.02;47.92
20003;BME280;10162;41.600;23.806;2023-05-22T13:39:40;94747.66;;;21.55;49.87
20003;BME280;10162;41.600;23.806;2023-05-22T13:45:35;94732.53;;;21.46;50.61
20003;BME280;10162;41.600;23.806;2023-05-22T13:48:00;94722.28;;;20.88;52.34
20003;BME280;10162;41.600;23.806;2023-05-22T13:53:34;94739.84;;;20.84;53.57
20003;BME280;10162;41.600;23.806;2023-05-22T13:56:01;94721.78;;;20.66;54.06
20003;BME280;10162;41.600;23.806;2023-05-22T13:58:27;94736.91;;;20.66;52.45
20003;BME280;10162;41.600;23.806;2023-05-22T14:01:12;94757.91;;;20.42;54.54
20003;BME280;10162;41.600;23.806;2023-05-22T14:03:39;94736.91;;;20.50;54.33
20003;BME280;10162;41.600;23.806;2023-05-22T14:06:05;94721.78;;;20.51;54.42
20003;BME280;10162;41.600;23.806;2023-05-22T14:08:31;94731.81;;;20.03;55.28
20003;BME280;10162;41.600;23.806;2023-05-22T14:11:00;94734.97;;;20.05;55.17
20003;BME280;10162;41.600;23.806;2023-05-22T14:13:30;94730.69;;;19.84;54.66
20003;BME280;10162;41.600;23.806;2023-05-22T14:15:55;94734.94;;;19.85;56.45
20003;BME280;10162;41.600;23.806;2023-05-22T14:18:21;94713.16;;;19.73;56.40
20003;BME280;10162;41.600;23.806;2023-05-22T14:20:47;94733.34;;;19.89;55.39
20003;BME280;10162;41.600;23.806;2023-05-22T14:23:13;94735.72;;;19.70;56.08
20003;BME280;10162;41.600;23.806;2023-05-22T14:25:40;94739.72;;;19.88;54.61
20003;BME280;10162;41.600;23.806;2023-05-22T14:28:11;94716.38;;;19.90;54.08
20003;BME280;10162;41.600;23.806;2023-05-22T14:33:32;94711.69;;;20.53;54.20
20003;BME280;10162;41.600;23.806;2023-05-22T14:35:58;94713.56;;;20.42;54.63
20003;BME280;10162;41.600;23.806;2023-05-22T14:38:25;94710.84;;;20.12;54.73
20003;BME280;10162;41.600;23.806;2023-05-22T14:40:50;94721.50;;;20.47;54.69
20003;BME280;10162;41.600;23.806;2023-05-22T14:43:17;94708.72;;;20.29;54.80
20003;BME280;10162;41.600;23.806;2023-05-22T14:45:43;94710.34;;;20.20;56.33
20003;BME280;10162;41.600;23.806;2023-05-22T14:48:09;94725.78;;;20.43;56.87
20003;BME280;10162;41.600;23.806;2023-05-22T14:54:31;94704.75;;;20.62;55.14
20003;BME280;10162;41.600;23.806;2023-05-22T14:56:58;94701.31;;;20.77;54.99
20003;BME280;10162;41.600;23.806;2023-05-22T14:59:23;94708.44;;;21.07;54.80
20003;BME280;10162;41.600;23.806;2023-05-22T15:05:22;94703.16;;;20.76;56.18
20003;BME280;10162;41.600;23.806;2023-05-22T15:07:47;94689.34;;;20.69;57.41
20003;BME280;10162;41.600;23.806;2023-05-22T15:10:26;94718.56;;;20.89;58.63
20003;BME280;10162;41.600;23.806;2023-05-22T15:12:52;94704.00;;;20.61;60.31
20003;BME280;10162;41.600;23.806;2023-05-22T15:15:18;94697.34;;;20.34;62.25
20003;BME280;10162;41.600;23.806;2023-05-22T15:17:45;94690.94;;;20.25;63.25
20003;BME280;10162;41.600;23.806;2023-05-22T15:24:04;94687.22;;;20.05;63.80
20003;BME280;10162;41.600;23.806;2023-05-22T15:26:30;94699.16;;;20.23;62.83
20003;BME280;10162;41.600;23.806;2023-05-22T15:28:56;94686.97;;;20.17;63.01
20003;BME280;10162;41.600;23.806;2023-05-22T15:34:38;94699.44;;;20.11;59.55
20003;BME280;10162;41.600;23.806;2023-05-22T15:37:04;94681.91;;;20.05;58.99
20003;BME280;10162;41.600;23.806;2023-05-22T15:39:30;94707.94;;;20.03;58.17
20003;BME280;10162;41.600;23.806;2023-05-22T15:45:50;94702.31;;;19.85;58.09
20003;BME280;10162;41.600;23.806;2023-05-22T15:48:16;94686.63;;;19.68;58.27
20003;BME280;10162;41.600;23.806;2023-05-22T15:50:45;94684.25;;;19.71;59.06
20003;BME280;10162;41.600;23.806;2023-05-22T15:53:11;94689.53;;;19.61;59.60
20003;BME280;10162;41.600;23.806;2023-05-22T15:55:37;94686.88;;;19.61;60.16
20003;BME280;10162;41.600;23.806;2023-05-22T15:58:03;94698.81;;;19.64;63.05
20003;BME280;10162;41.600;23.806;2023-05-22T16:04:26;94705.59;;;19.39;61.52
20003;BME280;10162;41.600;23.806;2023-05-22T16:06:52;94702.88;;;19.19;69.20
20003;BME280;10162;41.600;23.806;2023-05-22T16:09:18;94707.59;;;19.07;68.35
20003;BME280;10162;41.600;23.806;2023-05-22T16:11:45;94692.28;;;18.72;68.69
20003;BME280;10162;41.600;23.806;2023-05-22T16:14:11;94697.56;;;18.40;72.31
20003;BME280;10162;41.600;23.806;2023-05-22T16:16:37;94699.66;;;18.33;74.73
20003;BME280;10162;41.600;23.806;2023-05-22T16:19:03;94703.72;;;18.14;74.88
20003;BME280;10162;41.600;23.806;2023-05-22T16:21:42;94686.84;;;17.88;78.60
20003;BME280;10162;41.600;23.806;2023-05-22T16:24:07;94692.38;;;17.87;81.01
20003;BME280;10162;41.600;23.806;2023-05-22T16:26:35;94716.00;;;17.71;81.85
20003;BME280;10162;41.600;23.806;2023-05-22T16:29:04;94683.94;;;17.63;77.53
20003;BME280;10162;41.600;23.806;2023-05-22T16:35:24;94704.31;;;17.94;80.84
20003;BME280;10162;41.600;23.806;2023-05-22T16:37:52;94713.22;;;18.10;75.81
20003;BME280;10162;41.600;23.806;2023-05-22T16:40:43;94726.63;;;18.30;73.19
20003;BME280;10162;41.600;23.806;2023-05-22T16:43:10;94715.31;;;18.08;74.02
20003;BME280;10162;41.600;23.806;2023-05-22T16:45:37;94709.72;;;17.77;76.27
20003;BME280;10162;41.600;23.806;2023-05-22T16:48:04;94732.09;;;17.92;74.34
20003;BME280;10162;41.600;23.806;2023-05-22T16:53:59;94722.47;;;17.37;84.67
20003;BME280;10162;41.600;23.806;2023-05-22T16:56:25;94727.25;;;17.40;85.57
20003;BME280;10162;41.600;23.806;2023-05-22T16:58:51;94719.56;;;17.39;84.12
20003;BME280;10162;41.600;23.806;2023-05-22T17:01:37;94750.91;;;17.08;89.25
20003;BME280;10162;41.600;23.806;2023-05-22T17:04:04;94741.25;;;16.97;86.31
20003;BME280;10162;41.600;23.806;2023-05-22T17:06:29;94725.41;;;16.97;87.59
20003;BME280;10162;41.600;23.806;2023-05-22T17:08:56;94743.34;;;17.17;82.09
20003;BME280;10162;41.600;23.806;2023-05-22T17:14:50;94750.22;;;17.18;86.31
20003;BME280;10162;41.600;23.806;2023-05-22T17:17:15;94744.81;;;17.08;89.69
20003;BME280;10162;41.600;23.806;2023-05-22T17:19:43;94744.53;;;16.87;89.38
20003;BME280;10162;41.600;23.806;2023-05-22T17:22:23;94757.72;;;16.87;91.75
20003;BME280;10162;41.600;23.806;2023-05-22T17:24:48;94761.34;;;16.81;92.77
20003;BME280;10162;41.600;23.806;2023-05-22T17:27:14;94766.22;;;16.73;95.53
20003;BME280;10162;41.600;23.806;2023-05-22T17:29:42;94760.16;;;16.72;86.77
20003;BME280;10162;41.600;23.806;2023-05-22T17:32:34;94782.38;;;16.93;86.47
20003;BME280;10162;41.600;23.806;2023-05-22T17:35:00;94774.94;;;16.57;89.40
20003;BME280;10162;41.600;23.806;2023-05-22T17:37:26;94773.56;;;16.37;92.11
20003;BME280;10162;41.600;23.806;2023-05-22T17:39:54;94792.56;;;16.68;85.58
20003;BME280;10162;41.600;23.806;2023-05-22T17:45:43;94777.81;;;16.55;88.39
20003;BME280;10162;41.600;23.806;2023-05-22T17:48:15;94783.19;;;16.77;79.63
20003;BME280;10162;41.600;23.806;2023-05-22T17:50:45;94788.31;;;16.83;78.31
20003;BME280;10162;41.600;23.806;2023-05-22T17:53:11;94798.84;;;16.50;85.89
20003;BME280;10162;41.600;23.806;2023-05-22T17:59:31;94788.66;;;17.25;67.11
20003;BME280;10162;41.600;23.806;2023-05-22T18:05:06;94803.88;;;17.18;70.31
20003;BME280;10162;41.600;23.806;2023-05-22T18:07:32;94810.19;;;17.17;73.62
20003;BME280;10162;41.600;23.806;2023-05-22T18:09:58;94807.97;;;16.92;79.22
20003;BME280;10162;41.600;23.806;2023-05-22T18:16:18;94820.19;;;16.48;88.47
20003;BME280;10162;41.600;23.806;2023-05-22T18:18:45;94812.44;;;16.13;95.14
20003;BME280;10162;41.600;23.806;2023-05-22T18:21:13;94835.59;;;16.23;87.24
20003;BME280;10162;41.600;23.806;2023-05-22T18:23:41;94832.78;;;16.46;87.62
20003;BME280;10162;41.600;23.806;2023-05-22T18:26:06;94838.91;;;15.90;95.13
20003;BME280;10162;41.600;23.806;2023-05-22T18:28:34;94838.59;;;15.75;99.19
20003;BME280;10162;41.600;23.806;2023-05-22T18:31:10;94843.09;;;15.40;100.00
20003;BME280;10162;41.600;23.806;2023-05-22T18:33:36;94841.38;;;15.45;100.00
20003;BME280;10162;41.600;23.806;2023-05-22T18:36:03;94851.63;;;15.93;86.88
20003;BME280;10162;41.600;23.806;2023-05-22T18:38:29;94863.28;;;16.54;72.87
20003;BME280;10162;41.600;23.806;2023-05-22T18:41:26;94879.72;;;15.88;84.63
20003;BME280;10162;41.600;23.806;2023-05-22T18:43:52;94870.94;;;16.10;86.96
20003;BME280;10162;41.600;23.806;2023-05-22T18:46:17;94862.41;;;15.92;88.46
20003;BME280;10162;41.600;23.806;2023-05-22T18:48:43;94883.00;;;15.95;91.84
20003;BME280;10162;41.600;23.806;2023-05-22T18:55:03;94866.69;;;15.69;88.16
20003;BME280;10162;41.600;23.806;2023-05-22T18:57:30;94873.78;;;15.69;86.03
20003;BME280;10162;41.600;23.806;2023-05-22T18:59:55;94869.44;;;15.51;89.66
20003;BME280;10162;41.600;23.806;2023-05-22T19:02:36;94884.56;;;15.67;90.30
20003;BME280;10162;41.600;23.806;2023-05-22T19:05:04;94878.16;;;15.40;88.64
20003;BME280;10162;41.600;23.806;2023-05-22T19:07:30;94868.88;;;15.61;89.58
20003;BME280;10162;41.600;23.806;2023-05-22T19:09:55;94897.63;;;15.27;95.37
20003;BME280;10162;41.600;23.806;2023-05-22T19:15:44;94912.31;;;15.58;91.92
20003;BME280;10162;41.600;23.806;2023-05-22T19:18:10;94901.66;;;15.65;87.97
20003;BME280;10162;41.600;23.806;2023-05-22T19:23:59;94908.72;;;15.88;83.68
20003;BME280;10162;41.600;23.806;2023-05-22T19:26:25;94916.28;;;15.84;87.09
20003;BME280;10162;41.600;23.806;2023-05-22T19:28:53;94923.63;;;15.82;85.80
20003;BME280;10162;41.600;23.806;2023-05-22T19:35:19;94924.91;;;15.56;91.20
20003;BME280;10162;41.600;23.806;2023-05-22T19:37:45;94924.53;;;15.18;99.11
20003;BME280;10162;41.600;23.806;2023-05-22T19:44:09;94919.06;;;15.31;95.15
20003;BME280;10162;41.600;23.806;2023-05-22T19:46:34;94925.56;;;15.40;89.30
20003;BME280;10162;41.600;23.806;2023-05-22T19:49:00;94922.72;;;15.77;82.20
20003;BME280;10162;41.600;23.806;2023-05-22T19:55:21;94928.69;;;15.49;90.66
20003;BME280;10162;41.600;23.806;2023-05-22T19:57:48;94935.44;;;15.80;81.44
20003;BME280;10162;41.600;23.806;2023-05-22T20:04:07;94925.81;;;15.74;83.42
20003;BME280;10162;41.600;23.806;2023-05-22T20:06:34;94938.66;;;15.70;83.13
20003;BME280;10162;41.600;23.806;2023-05-22T20:08:59;94924.34;;;15.66;82.44
20003;BME280;10162;41.600;23.806;2023-05-22T20:15:21;94917.34;;;15.72;80.77
20003;BME280;10162;41.600;23.806;2023-05-22T20:17:50;94922.72;;;15.77;79.73
20003;BME280;10162;41.600;23.806;2023-05-22T20:20:18;94930.97;;;15.80;83.05
20003;BME280;10162;41.600;23.806;2023-05-22T20:22:46;94927.91;;;15.72;79.54
20003;BME280;10162;41.600;23.806;2023-05-22T20:25:12;94938.63;;;15.47;85.68
20003;BME280;10162;41.600;23.806;2023-05-22T20:27:38;94941.03;;;15.37;83.69
20003;BME280;10162;41.600;23.806;2023-05-22T20:33:58;94942.53;;;15.56;82.91
20003;BME280;10162;41.600;23.806;2023-05-22T20:36:26;94942.09;;;15.82;81.80
20003;BME280;10162;41.600;23.806;2023-05-22T20:38:52;94935.09;;;15.76;79.19
20003;BME280;10162;41.600;23.806;2023-05-22T20:45:28;94935.13;;;15.53;81.08
20003;BME280;10162;41.600;23.806;2023-05-22T20:47:55;94937.94;;;15.51;84.01
20003;BME280;10162;41.600;23.806;2023-05-22T20:54:18;94937.53;;;15.54;82.83
20003;BME280;10162;41.600;23.806;2023-05-22T20:56:45;94932.44;;;15.18;91.99
20003;BME280;10162;41.600;23.806;2023-05-22T20:59:11;94933.31;;;15.00;94.82
20003;BME280;10162;41.600;23.806;2023-05-22T21:05:30;94931.72;;;14.99;95.97
20003;BME280;10162;41.600;23.806;2023-05-22T21:07:58;94936.59;;;14.84;95.53
20003;BME280;10162;41.600;23.806;2023-05-22T21:14:18;94931.72;;;15.11;91.29
20003;BME280;10162;41.600;23.806;2023-05-22T21:16:44;94930.84;;;14.75;100.00
20003;BME280;10162;41.600;23.806;2023-05-22T21:19:10;94919.72;;;14.62;100.00
20003;BME280;10162;41.600;23.806;2023-05-22T21:22:16;94935.50;;;14.62;100.00
20003;BME280;10162;41.600;23.806;2023-05-22T21:24:44;94921.53;;;14.50;100.00
20003;BME280;10162;41.600;23.806;2023-05-22T21:27:09;94924.75;;;14.33;100.00
20003;BME280;10162;41.600;23.806;2023-05-22T21:29:37;94923.06;;;14.69;98.60
20003;BME280;10162;41.600;23.806;2023-05-22T21:35:57;94923.94;;;15.04;92.49
20003;BME280;10162;41.600;23.806;2023-05-22T21:38:24;94909.50;;;14.95;92.35
20003;BME280;10162;41.600;23.806;2023-05-22T21:44:43;94915.94;;;15.34;90.00
20003;BME280;10162;41.600;23.806;2023-05-22T21:47:10;94907.81;;;15.36;89.86
20003;BME280;10162;41.600;23.806;2023-05-22T21:49:35;94932.78;;;15.45;89.59
20003;BME280;10162;41.600;23.806;2023-05-22T21:55:19;94919.56;;;14.98;97.79
20003;BME280;10162;41.600;23.806;2023-05-22T21:57:45;94927.03;;;14.60;100.00
20003;BME280;10162;41.600;23.806;2023-05-22T22:03:37;94935.84;;;14.65;98.48
20003;BME280;10162;41.600;23.806;2023-05-22T22:06:03;94925.47;;;14.70;99.92
20003;BME280;10162;41.600;23.806;2023-05-22T22:08:31;94929.31;;;14.56;100.00
20003;BME280;10162;41.600;23.806;2023-05-22T22:14:51;94935.88;;;14.17;100.00
20003;BME280;10162;41.600;23.806;2023-05-22T22:17:17;94925.09;;;13.89;100.00
20003;BME280;10162;41.600;23.806;2023-05-22T22:19:49;94934.22;;;13.86;100.00
20003;BME280;10162;41.600;23.806;2023-05-22T22:26:11;94923.91;;;13.85;100.00
20003;BME280;10162;41.600;23.806;2023-05-22T22:28:37;94931.78;;;14.03;100.00
20003;BME280;10162;41.600;23.806;2023-05-22T22:34:57;94932.31;;;13.93;100.00
20003;BME280;10162;41.600;23.806;2023-05-22T22:37:24;94940.75;;;13.95;100.00
20003;BME280;10162;41.600;23.806;2023-05-22T22:39:49;94926.25;;;13.75;100.00
20003;BME280;10162;41.600;23.806;2023-05-22T22:46:10;94916.53;;;13.57;100.00
20003;BME280;10162;41.600;23.806;2023-05-22T22:48:36;94930.47;;;13.57;100.00
20003;BME280;10162;41.600;23.806;2023-05-22T22:54:55;94942.75;;;13.63;100.00
20003;BME280;10162;41.600;23.806;2023-05-22T22:57:21;94931.00;;;13.66;100.00
20003;BME280;10162;41.600;23.806;2023-05-22T22:59:46;94929.97;;;13.49;100.00
20003;BME280;10162;41.600;23.806;2023-05-22T23:05:38;94924.34;;;13.63;100.00
20003;BME280;10162;41.600;23.806;2023-05-22T23:08:04;94922.19;;;13.60;100.00
20003;BME280;10162;41.600;23.806;2023-05-22T23:14:28;94921.94;;;13.62;100.00
20003;BME280;10162;41.600;23.806;2023-05-22T23:16:54;94927.28;;;13.74;100.00
20003;BME280;10162;41.600;23.806;2023-05-22T23:19:19;94918.09;;;13.64;100.00
20003;BME280;10162;41.600;23.806;2023-05-22T23:25:39;94926.19;;;13.81;100.00
20003;BME280;10162;41.600;23.806;2023-05-22T23:28:05;94927.88;;;13.76;100.00
20003;BME280;10162;41.600;23.806;2023-05-22T23:34:25;94937.22;;;13.72;100.00
20003;BME280;10162;41.600;23.806;2023-05-22T23:36:51;94925.03;;;13.77;100.00
20003;BME280;10162;41.600;23.806;2023-05-22T23:39:16;94923.75;;;13.61;100.00
20003;BME280;10162;41.600;23.806;2023-05-22T23:45:38;94921.44;;;13.72;100.00
20003;BME280;10162;41.600;23.806;2023-05-22T23:48:04;94918.22;;;13.70;100.00
20003;BME280;10162;41.600;23.806;2023-05-22T23:54:23;94917.22;;;13.28;100.00
20003;BME280;10162;41.600;23.806;2023-05-22T23:56:49;94923.06;;;13.30;100.00
20003;BME280;10162;41.600;23.806;2023-05-22T23:59:15;94923.03;;;13.54;100.00
